sensor_id;sensor_type;location;lat;lon;timestamp;P1;durP1;ratioP1;P2;durP2;ratioP2
4895;SDS011;2463;49.948;8.472;2024-03-02T00:00:30;91.93;;;6.13;;
4895;SDS011;2463;49.948;8.472;2024-03-02T00:02:57;91.70;;;5.80;;
4895;SDS011;2463;49.948;8.472;2024-03-02T00:05:24;92.90;;;6.75;;
4895;SDS011;2463;49.948;8.472;2024-03-02T00:07:54;92.97;;;6.53;;
4895;SDS011;2463;49.948;8.472;2024-03-02T00:10:23;90.47;;;6.10;;
4895;SDS011;2463;49.948;8.472;2024-03-02T00:12:55;92.45;;;5.90;;
4895;SDS011;2463;49.948;8.472;2024-03-02T00:15:37;95.70;;;5.85;;
4895;SDS011;2463;49.948;8.472;2024-03-02T00:18:20;90.93;;;5.82;;
4895;SDS011;2463;49.948;8.472;2024-03-02T00:20:52;90.93;;;5.70;;
4895;SDS011;2463;49.948;8.472;2024-03-02T00:23:23;91.10;;;5.88;;
4895;SDS011;2463;49.948;8.472;2024-03-02T00:25:51;91.82;;;6.50;;
4895;SDS011;2463;49.948;8.472;2024-03-02T00:30:57;91.03;;;5.63;;
4895;SDS011;2463;49.948;8.472;2024-03-02T00:33:31;90.50;;;5.75;;
4895;SDS011;2463;49.948;8.472;2024-03-02T00:36:00;90.38;;;5.80;;
4895;SDS011;2463;49.948;8.472;2024-03-02T00:38:29;91.65;;;5.90;;
4895;SDS011;2463;49.948;8.472;2024-03-02T00:40:58;91.40;;;6.00;;
4895;SDS011;2463;49.948;8.472;2024-03-02T00:46:14;91.63;;;5.95;;
4895;SDS011;2463;49.948;8.472;2024-03-02T00:48:51;91.60;;;6.20;;
4895;SDS011;2463;49.948;8.472;2024-03-02T00:51:23;91.00;;;5.50;;
4895;SDS011;2463;49.948;8.472;2024-03-02T00:53:51;92.07;;;6.30;;
4895;SDS011;2463;49.948;8.472;2024-03-02T00:56:26;94.65;;;6.32;;
4895;SDS011;2463;49.948;8.472;2024-03-02T00:58:53;92.22;;;6.13;;
4895;SDS011;2463;49.948;8.472;2024-03-02T01:01:19;90.88;;;5.78;;
4895;SDS011;2463;49.948;8.472;2024-03-02T01:03:46;91.88;;;6.53;;
4895;SDS011;2463;49.948;8.472;2024-03-02T01:06:13;93.82;;;6.38;;
4895;SDS011;2463;49.948;8.472;2024-03-02T01:08:41;91.57;;;6.57;;
4895;SDS011;2463;49.948;8.472;2024-03-02T01:11:08;93.00;;;6.20;;
4895;SDS011;2463;49.948;8.472;2024-03-02T01:13:35;92.68;;;6.85;;
4895;SDS011;2463;49.948;8.472;2024-03-02T01:16:02;93.95;;;6.25;;
4895;SDS011;2463;49.948;8.472;2024-03-02T01:18:30;92.30;;;6.25;;
4895;SDS011;2463;49.948;8.472;2024-03-02T01:20:57;92.55;;;6.43;;
4895;SDS011;2463;49.948;8.472;2024-03-02T01:23:24;94.03;;;6.30;;
4895;SDS011;2463;49.948;8.472;2024-03-02T01:25:51;91.45;;;6.10;;
4895;SDS011;2463;49.948;8.472;2024-03-02T01:28:18;96.43;;;6.72;;
4895;SDS011;2463;49.948;8.472;2024-03-02T01:30:46;91.70;;;6.53;;
4895;SDS011;2463;49.948;8.472;2024-03-02T01:33:14;92.05;;;6.35;;
4895;SDS011;2463;49.948;8.472;2024-03-02T01:35:41;91.50;;;6.50;;
4895;SDS011;2463;49.948;8.472;2024-03-02T01:38:07;91.43;;;6.30;;
4895;SDS011;2463;49.948;8.472;2024-03-02T01:40:34;93.57;;;6.65;;
4895;SDS011;2463;49.948;8.472;2024-03-02T01:43:01;95.60;;;6.85;;
4895;SDS011;2463;49.948;8.472;2024-03-02T01:45:29;92.32;;;6.22;;
4895;SDS011;2463;49.948;8.472;2024-03-02T01:47:57;92.80;;;6.45;;
4895;SDS011;2463;49.948;8.472;2024-03-02T01:50:28;91.82;;;6.53;;
4895;SDS011;2463;49.948;8.472;2024-03-02T01:52:56;93.63;;;6.38;;
4895;SDS011;2463;49.948;8.472;2024-03-02T01:55:23;95.40;;;6.75;;
4895;SDS011;2463;49.948;8.472;2024-03-02T01:57:49;111.53;;;7.60;;
4895;SDS011;2463;49.948;8.472;2024-03-02T02:00:17;91.13;;;6.22;;
4895;SDS011;2463;49.948;8.472;2024-03-02T02:02:47;93.15;;;6.60;;
4895;SDS011;2463;49.948;8.472;2024-03-02T02:05:14;92.05;;;6.60;;
4895;SDS011;2463;49.948;8.472;2024-03-02T02:07:41;97.78;;;6.60;;
4895;SDS011;2463;49.948;8.472;2024-03-02T02:10:12;92.13;;;6.57;;
4895;SDS011;2463;49.948;8.472;2024-03-02T02:12:39;94.25;;;6.32;;
4895;SDS011;2463;49.948;8.472;2024-03-02T02:15:28;91.35;;;6.35;;
4895;SDS011;2463;49.948;8.472;2024-03-02T02:17:56;92.78;;;6.68;;
4895;SDS011;2463;49.948;8.472;2024-03-02T02:20:24;92.22;;;6.60;;
4895;SDS011;2463;49.948;8.472;2024-03-02T02:25:28;92.18;;;6.32;;
4895;SDS011;2463;49.948;8.472;2024-03-02T02:27:55;93.97;;;6.82;;
4895;SDS011;2463;49.948;8.472;2024-03-02T02:30:24;93.50;;;6.50;;
4895;SDS011;2463;49.948;8.472;2024-03-02T02:32:56;92.55;;;6.13;;
4895;SDS011;2463;49.948;8.472;2024-03-02T02:35:24;92.47;;;6.95;;
4895;SDS011;2463;49.948;8.472;2024-03-02T02:37:51;93.35;;;7.35;;
4895;SDS011;2463;49.948;8.472;2024-03-02T02:40:19;92.03;;;6.35;;
4895;SDS011;2463;49.948;8.472;2024-03-02T02:42:46;93.00;;;6.25;;
4895;SDS011;2463;49.948;8.472;2024-03-02T02:45:13;91.72;;;6.20;;
4895;SDS011;2463;49.948;8.472;2024-03-02T02:47:41;92.25;;;6.45;;
4895;SDS011;2463;49.948;8.472;2024-03-02T02:50:08;94.03;;;7.20;;
4895;SDS011;2463;49.948;8.472;2024-03-02T02:52:36;92.85;;;6.35;;
4895;SDS011;2463;49.948;8.472;2024-03-02T02:55:06;92.38;;;6.40;;
4895;SDS011;2463;49.948;8.472;2024-03-02T02:57:34;92.65;;;6.50;;
4895;SDS011;2463;49.948;8.472;2024-03-02T03:00:09;94.82;;;6.97;;
4895;SDS011;2463;49.948;8.472;2024-03-02T03:02:42;92.40;;;6.30;;
4895;SDS011;2463;49.948;8.472;2024-03-02T03:05:10;92.45;;;6.38;;
4895;SDS011;2463;49.948;8.472;2024-03-02T03:07:40;92.65;;;6.50;;
4895;SDS011;2463;49.948;8.472;2024-03-02T03:10:07;93.70;;;6.25;;
4895;SDS011;2463;49.948;8.472;2024-03-02T03:12:34;94.40;;;7.25;;
4895;SDS011;2463;49.948;8.472;2024-03-02T03:15:02;95.38;;;7.25;;
4895;SDS011;2463;49.948;8.472;2024-03-02T03:17:30;92.18;;;6.35;;
4895;SDS011;2463;49.948;8.472;2024-03-02T03:19:57;92.72;;;6.60;;
4895;SDS011;2463;49.948;8.472;2024-03-02T03:22:24;96.30;;;6.40;;
4895;SDS011;2463;49.948;8.472;2024-03-02T03:24:50;91.93;;;6.30;;
4895;SDS011;2463;49.948;8.472;2024-03-02T03:27:17;93.57;;;6.95;;
4895;SDS011;2463;49.948;8.472;2024-03-02T03:29:46;93.70;;;7.00;;
4895;SDS011;2463;49.948;8.472;2024-03-02T03:32:12;92.68;;;6.78;;
4895;SDS011;2463;49.948;8.472;2024-03-02T03:34:39;92.32;;;6.65;;
4895;SDS011;2463;49.948;8.472;2024-03-02T03:37:06;92.28;;;6.85;;
4895;SDS011;2463;49.948;8.472;2024-03-02T03:39:36;92.18;;;6.38;;
4895;SDS011;2463;49.948;8.472;2024-03-02T03:42:03;94.78;;;7.13;;
4895;SDS011;2463;49.948;8.472;2024-03-02T03:44:30;94.57;;;7.80;;
4895;SDS011;2463;49.948;8.472;2024-03-02T03:46:57;93.28;;;7.38;;
4895;SDS011;2463;49.948;8.472;2024-03-02T03:49:23;94.88;;;7.47;;
4895;SDS011;2463;49.948;8.472;2024-03-02T03:51:50;91.72;;;6.78;;
4895;SDS011;2463;49.948;8.472;2024-03-02T03:54:17;95.30;;;6.80;;
4895;SDS011;2463;49.948;8.472;2024-03-02T03:56:43;93.40;;;7.22;;
4895;SDS011;2463;49.948;8.472;2024-03-02T03:59:10;91.85;;;6.95;;
4895;SDS011;2463;49.948;8.472;2024-03-02T04:01:37;94.63;;;7.43;;
4895;SDS011;2463;49.948;8.472;2024-03-02T04:04:04;91.80;;;6.60;;
4895;SDS011;2463;49.948;8.472;2024-03-02T04:06:30;97.43;;;7.05;;
4895;SDS011;2463;49.948;8.472;2024-03-02T04:08:58;95.32;;;6.78;;
4895;SDS011;2463;49.948;8.472;2024-03-02T04:11:24;92.32;;;6.78;;
4895;SDS011;2463;49.948;8.472;2024-03-02T04:13:51;93.60;;;7.15;;
4895;SDS011;2463;49.948;8.472;2024-03-02T04:16:20;92.65;;;7.15;;
4895;SDS011;2463;49.948;8.472;2024-03-02T04:18:47;94.93;;;7.28;;
4895;SDS011;2463;49.948;8.472;2024-03-02T04:21:13;92.93;;;7.07;;
4895;SDS011;2463;49.948;8.472;2024-03-02T04:23:40;95.80;;;7.20;;
4895;SDS011;2463;49.948;8.472;2024-03-02T04:26:07;94.45;;;8.30;;
4895;SDS011;2463;49.948;8.472;2024-03-02T04:28:33;94.70;;;7.60;;
4895;SDS011;2463;49.948;8.472;2024-03-02T04:31:00;96.00;;;7.45;;
4895;SDS011;2463;49.948;8.472;2024-03-02T04:33:27;94.80;;;7.53;;
4895;SDS011;2463;49.948;8.472;2024-03-02T04:35:54;95.13;;;8.38;;
4895;SDS011;2463;49.948;8.472;2024-03-02T04:38:20;94.65;;;6.90;;
4895;SDS011;2463;49.948;8.472;2024-03-02T04:40:47;98.28;;;8.10;;
4895;SDS011;2463;49.948;8.472;2024-03-02T04:43:13;94.13;;;7.45;;
4895;SDS011;2463;49.948;8.472;2024-03-02T04:45:42;96.95;;;7.75;;
4895;SDS011;2463;49.948;8.472;2024-03-02T04:48:09;98.70;;;8.50;;
4895;SDS011;2463;49.948;8.472;2024-03-02T04:50:36;94.82;;;6.60;;
4895;SDS011;2463;49.948;8.472;2024-03-02T04:53:02;93.97;;;7.43;;
4895;SDS011;2463;49.948;8.472;2024-03-02T04:55:29;94.95;;;8.40;;
4895;SDS011;2463;49.948;8.472;2024-03-02T04:58:05;98.85;;;8.30;;
4895;SDS011;2463;49.948;8.472;2024-03-02T05:00:32;97.65;;;7.90;;
4895;SDS011;2463;49.948;8.472;2024-03-02T05:03:00;95.40;;;8.00;;
4895;SDS011;2463;49.948;8.472;2024-03-02T05:05:27;94.88;;;7.72;;
4895;SDS011;2463;49.948;8.472;2024-03-02T05:07:54;96.05;;;7.45;;
4895;SDS011;2463;49.948;8.472;2024-03-02T05:10:20;97.22;;;8.73;;
4895;SDS011;2463;49.948;8.472;2024-03-02T05:12:47;95.30;;;7.60;;
4895;SDS011;2463;49.948;8.472;2024-03-02T05:15:23;96.90;;;8.80;;
4895;SDS011;2463;49.948;8.472;2024-03-02T05:17:51;99.20;;;8.95;;
4895;SDS011;2463;49.948;8.472;2024-03-02T05:20:18;96.43;;;8.40;;
4895;SDS011;2463;49.948;8.472;2024-03-02T05:22:44;95.97;;;7.80;;
4895;SDS011;2463;49.948;8.472;2024-03-02T05:25:11;100.45;;;7.57;;
4895;SDS011;2463;49.948;8.472;2024-03-02T05:27:38;97.85;;;8.38;;
4895;SDS011;2463;49.948;8.472;2024-03-02T05:30:05;96.80;;;7.60;;
4895;SDS011;2463;49.948;8.472;2024-03-02T05:32:33;115.40;;;7.38;;
4895;SDS011;2463;49.948;8.472;2024-03-02T05:35:00;94.20;;;6.80;;
4895;SDS011;2463;49.948;8.472;2024-03-02T05:37:27;94.50;;;7.75;;
4895;SDS011;2463;49.948;8.472;2024-03-02T05:39:54;95.40;;;7.70;;
4895;SDS011;2463;49.948;8.472;2024-03-02T05:42:21;98.35;;;8.40;;
4895;SDS011;2463;49.948;8.472;2024-03-02T05:44:48;98.80;;;8.73;;
4895;SDS011;2463;49.948;8.472;2024-03-02T05:47:14;95.72;;;8.80;;
4895;SDS011;2463;49.948;8.472;2024-03-02T05:49:42;99.80;;;8.82;;
4895;SDS011;2463;49.948;8.472;2024-03-02T05:52:09;98.15;;;8.35;;
4895;SDS011;2463;49.948;8.472;2024-03-02T05:54:36;97.22;;;8.23;;
4895;SDS011;2463;49.948;8.472;2024-03-02T05:57:03;105.60;;;8.32;;
4895;SDS011;2463;49.948;8.472;2024-03-02T05:59:43;97.97;;;8.88;;
4895;SDS011;2463;49.948;8.472;2024-03-02T06:02:10;99.10;;;9.77;;
4895;SDS011;2463;49.948;8.472;2024-03-02T06:04:37;94.85;;;7.82;;
4895;SDS011;2463;49.948;8.472;2024-03-02T06:07:03;97.70;;;8.18;;
4895;SDS011;2463;49.948;8.472;2024-03-02T06:09:30;96.47;;;8.32;;
4895;SDS011;2463;49.948;8.472;2024-03-02T06:11:57;95.65;;;8.60;;
4895;SDS011;2463;49.948;8.472;2024-03-02T06:14:23;97.43;;;8.02;;
4895;SDS011;2463;49.948;8.472;2024-03-02T06:16:50;96.68;;;8.20;;
4895;SDS011;2463;49.948;8.472;2024-03-02T06:19:17;96.65;;;8.65;;
4895;SDS011;2463;49.948;8.472;2024-03-02T06:21:44;95.80;;;7.90;;
4895;SDS011;2463;49.948;8.472;2024-03-02T06:24:10;98.57;;;7.97;;
4895;SDS011;2463;49.948;8.472;2024-03-02T06:26:37;99.90;;;8.60;;
4895;SDS011;2463;49.948;8.472;2024-03-02T06:29:04;98.35;;;8.57;;
4895;SDS011;2463;49.948;8.472;2024-03-02T06:31:30;97.53;;;8.90;;
4895;SDS011;2463;49.948;8.472;2024-03-02T06:33:57;97.25;;;7.80;;
4895;SDS011;2463;49.948;8.472;2024-03-02T06:36:23;97.65;;;8.55;;
4895;SDS011;2463;49.948;8.472;2024-03-02T06:38:50;95.60;;;8.38;;
4895;SDS011;2463;49.948;8.472;2024-03-02T06:41:17;98.53;;;8.85;;
4895;SDS011;2463;49.948;8.472;2024-03-02T06:43:43;108.78;;;10.32;;
4895;SDS011;2463;49.948;8.472;2024-03-02T06:46:10;95.75;;;8.10;;
4895;SDS011;2463;49.948;8.472;2024-03-02T06:48:40;99.45;;;9.23;;
4895;SDS011;2463;49.948;8.472;2024-03-02T06:51:07;98.78;;;8.80;;
4895;SDS011;2463;49.948;8.472;2024-03-02T06:53:34;98.75;;;8.35;;
4895;SDS011;2463;49.948;8.472;2024-03-02T06:56:00;97.63;;;8.55;;
4895;SDS011;2463;49.948;8.472;2024-03-02T06:58:27;99.78;;;9.48;;
4895;SDS011;2463;49.948;8.472;2024-03-02T07:00:54;97.32;;;8.13;;
4895;SDS011;2463;49.948;8.472;2024-03-02T07:03:20;97.20;;;8.68;;
4895;SDS011;2463;49.948;8.472;2024-03-02T07:05:47;95.97;;;8.57;;
4895;SDS011;2463;49.948;8.472;2024-03-02T07:08:14;95.80;;;8.27;;
4895;SDS011;2463;49.948;8.472;2024-03-02T07:10:41;95.85;;;8.48;;
4895;SDS011;2463;49.948;8.472;2024-03-02T07:13:07;98.18;;;9.10;;
4895;SDS011;2463;49.948;8.472;2024-03-02T07:15:34;99.47;;;9.30;;
4895;SDS011;2463;49.948;8.472;2024-03-02T07:18:33;96.63;;;8.25;;
4895;SDS011;2463;49.948;8.472;2024-03-02T07:20:59;95.10;;;8.30;;
4895;SDS011;2463;49.948;8.472;2024-03-02T07:23:27;98.55;;;9.32;;
4895;SDS011;2463;49.948;8.472;2024-03-02T07:25:54;101.40;;;10.25;;
4895;SDS011;2463;49.948;8.472;2024-03-02T07:28:25;98.15;;;9.80;;
4895;SDS011;2463;49.948;8.472;2024-03-02T07:30:59;99.68;;;9.25;;
4895;SDS011;2463;49.948;8.472;2024-03-02T07:33:30;102.70;;;9.27;;
4895;SDS011;2463;49.948;8.472;2024-03-02T07:35:58;101.35;;;9.88;;
4895;SDS011;2463;49.948;8.472;2024-03-02T07:38:30;98.03;;;9.90;;
4895;SDS011;2463;49.948;8.472;2024-03-02T07:40:58;101.47;;;10.63;;
4895;SDS011;2463;49.948;8.472;2024-03-02T07:43:25;98.18;;;9.75;;
4895;SDS011;2463;49.948;8.472;2024-03-02T07:45:52;100.75;;;10.02;;
4895;SDS011;2463;49.948;8.472;2024-03-02T07:48:19;103.07;;;11.18;;
4895;SDS011;2463;49.948;8.472;2024-03-02T07:50:46;109.70;;;10.15;;
4895;SDS011;2463;49.948;8.472;2024-03-02T07:53:12;100.00;;;11.10;;
4895;SDS011;2463;49.948;8.472;2024-03-02T07:55:40;98.78;;;10.25;;
4895;SDS011;2463;49.948;8.472;2024-03-02T07:58:07;99.60;;;10.35;;
4895;SDS011;2463;49.948;8.472;2024-03-02T08:00:33;96.57;;;9.18;;
4895;SDS011;2463;49.948;8.472;2024-03-02T08:03:01;99.07;;;9.77;;
4895;SDS011;2463;49.948;8.472;2024-03-02T08:05:28;99.15;;;9.38;;
4895;SDS011;2463;49.948;8.472;2024-03-02T08:07:54;98.05;;;9.77;;
4895;SDS011;2463;49.948;8.472;2024-03-02T08:10:21;96.32;;;8.80;;
4895;SDS011;2463;49.948;8.472;2024-03-02T08:12:48;96.68;;;8.35;;
4895;SDS011;2463;49.948;8.472;2024-03-02T08:15:14;96.68;;;8.65;;
4895;SDS011;2463;49.948;8.472;2024-03-02T08:17:41;96.47;;;9.00;;
4895;SDS011;2463;49.948;8.472;2024-03-02T08:20:11;101.25;;;10.35;;
4895;SDS011;2463;49.948;8.472;2024-03-02T08:22:38;95.18;;;8.68;;
4895;SDS011;2463;49.948;8.472;2024-03-02T08:25:06;95.87;;;9.10;;
4895;SDS011;2463;49.948;8.472;2024-03-02T08:27:34;101.38;;;9.05;;
4895;SDS011;2463;49.948;8.472;2024-03-02T08:30:01;99.85;;;10.02;;
4895;SDS011;2463;49.948;8.472;2024-03-02T08:32:29;95.38;;;8.80;;
4895;SDS011;2463;49.948;8.472;2024-03-02T08:34:56;98.97;;;9.48;;
4895;SDS011;2463;49.948;8.472;2024-03-02T08:37:23;101.72;;;9.50;;
4895;SDS011;2463;49.948;8.472;2024-03-02T08:39:49;98.60;;;10.88;;
4895;SDS011;2463;49.948;8.472;2024-03-02T08:42:16;102.13;;;9.52;;
4895;SDS011;2463;49.948;8.472;2024-03-02T08:44:43;99.57;;;10.10;;
4895;SDS011;2463;49.948;8.472;2024-03-02T08:47:10;95.65;;;8.52;;
4895;SDS011;2463;49.948;8.472;2024-03-02T08:49:37;95.85;;;7.97;;
4895;SDS011;2463;49.948;8.472;2024-03-02T08:52:03;96.88;;;8.40;;
4895;SDS011;2463;49.948;8.472;2024-03-02T08:54:30;97.10;;;9.23;;
4895;SDS011;2463;49.948;8.472;2024-03-02T08:56:58;96.18;;;8.30;;
4895;SDS011;2463;49.948;8.472;2024-03-02T08:59:25;93.07;;;8.30;;
4895;SDS011;2463;49.948;8.472;2024-03-02T09:01:53;97.10;;;9.13;;
4895;SDS011;2463;49.948;8.472;2024-03-02T09:04:20;97.70;;;8.50;;
4895;SDS011;2463;49.948;8.472;2024-03-02T09:06:52;101.90;;;8.95;;
4895;SDS011;2463;49.948;8.472;2024-03-02T09:09:18;96.55;;;8.73;;
4895;SDS011;2463;49.948;8.472;2024-03-02T09:11:45;91.57;;;7.25;;
4895;SDS011;2463;49.948;8.472;2024-03-02T09:14:12;96.50;;;8.23;;
4895;SDS011;2463;49.948;8.472;2024-03-02T09:16:41;96.25;;;8.70;;
4895;SDS011;2463;49.948;8.472;2024-03-02T09:19:08;97.82;;;8.48;;
4895;SDS011;2463;49.948;8.472;2024-03-02T09:21:35;94.28;;;9.30;;
4895;SDS011;2463;49.948;8.472;2024-03-02T09:24:02;93.03;;;7.63;;
4895;SDS011;2463;49.948;8.472;2024-03-02T09:26:29;98.30;;;8.95;;
4895;SDS011;2463;49.948;8.472;2024-03-02T09:28:56;95.47;;;8.52;;
4895;SDS011;2463;49.948;8.472;2024-03-02T09:31:23;92.80;;;7.35;;
4895;SDS011;2463;49.948;8.472;2024-03-02T09:33:49;95.25;;;7.75;;
4895;SDS011;2463;49.948;8.472;2024-03-02T09:36:19;92.10;;;7.82;;
4895;SDS011;2463;49.948;8.472;2024-03-02T09:38:48;93.65;;;7.93;;
4895;SDS011;2463;49.948;8.472;2024-03-02T09:41:15;93.90;;;6.80;;
4895;SDS011;2463;49.948;8.472;2024-03-02T09:43:41;90.88;;;7.00;;
4895;SDS011;2463;49.948;8.472;2024-03-02T09:46:08;92.13;;;7.18;;
4895;SDS011;2463;49.948;8.472;2024-03-02T09:48:36;93.80;;;7.00;;
4895;SDS011;2463;49.948;8.472;2024-03-02T09:51:04;91.75;;;7.20;;
4895;SDS011;2463;49.948;8.472;2024-03-02T09:53:32;89.60;;;6.27;;
4895;SDS011;2463;49.948;8.472;2024-03-02T09:55:59;91.68;;;6.60;;
4895;SDS011;2463;49.948;8.472;2024-03-02T09:58:27;91.32;;;6.80;;
4895;SDS011;2463;49.948;8.472;2024-03-02T10:00:53;88.88;;;6.35;;
4895;SDS011;2463;49.948;8.472;2024-03-02T10:03:20;93.65;;;6.50;;
4895;SDS011;2463;49.948;8.472;2024-03-02T10:05:50;92.15;;;7.65;;
4895;SDS011;2463;49.948;8.472;2024-03-02T10:08:17;93.55;;;7.13;;
4895;SDS011;2463;49.948;8.472;2024-03-02T10:10:44;92.70;;;7.40;;
4895;SDS011;2463;49.948;8.472;2024-03-02T10:13:11;89.47;;;7.25;;
4895;SDS011;2463;49.948;8.472;2024-03-02T10:15:39;90.47;;;6.68;;
4895;SDS011;2463;49.948;8.472;2024-03-02T10:18:10;88.10;;;6.28;;
4895;SDS011;2463;49.948;8.472;2024-03-02T10:20:39;91.00;;;7.25;;
4895;SDS011;2463;49.948;8.472;2024-03-02T10:23:13;92.57;;;6.95;;
4895;SDS011;2463;49.948;8.472;2024-03-02T10:25:41;90.00;;;6.03;;
4895;SDS011;2463;49.948;8.472;2024-03-02T10:28:22;92.10;;;7.07;;
4895;SDS011;2463;49.948;8.472;2024-03-02T10:30:49;90.57;;;6.60;;
4895;SDS011;2463;49.948;8.472;2024-03-02T10:33:17;89.40;;;6.20;;
4895;SDS011;2463;49.948;8.472;2024-03-02T10:35:45;89.13;;;5.80;;
4895;SDS011;2463;49.948;8.472;2024-03-02T10:38:14;89.85;;;6.55;;
4895;SDS011;2463;49.948;8.472;2024-03-02T10:40:41;89.03;;;5.85;;
4895;SDS011;2463;49.948;8.472;2024-03-02T10:43:14;89.22;;;6.43;;
4895;SDS011;2463;49.948;8.472;2024-03-02T10:45:42;89.25;;;6.05;;
4895;SDS011;2463;49.948;8.472;2024-03-02T10:48:09;88.80;;;6.35;;
4895;SDS011;2463;49.948;8.472;2024-03-02T10:50:36;89.40;;;6.18;;
4895;SDS011;2463;49.948;8.472;2024-03-02T10:53:03;87.20;;;5.97;;
4895;SDS011;2463;49.948;8.472;2024-03-02T10:55:31;89.70;;;6.47;;
4895;SDS011;2463;49.948;8.472;2024-03-02T10:57:59;90.28;;;6.75;;
4895;SDS011;2463;49.948;8.472;2024-03-02T11:00:32;87.53;;;6.07;;
4895;SDS011;2463;49.948;8.472;2024-03-02T11:03:07;87.70;;;6.17;;
4895;SDS011;2463;49.948;8.472;2024-03-02T11:05:38;87.63;;;5.32;;
4895;SDS011;2463;49.948;8.472;2024-03-02T11:08:12;92.17;;;5.27;;
4895;SDS011;2463;49.948;8.472;2024-03-02T11:10:41;88.60;;;5.80;;
4895;SDS011;2463;49.948;8.472;2024-03-02T11:13:27;87.97;;;5.60;;
4895;SDS011;2463;49.948;8.472;2024-03-02T11:15:59;86.50;;;5.10;;
4895;SDS011;2463;49.948;8.472;2024-03-02T11:18:36;87.70;;;5.10;;
4895;SDS011;2463;49.948;8.472;2024-03-02T11:21:04;87.37;;;5.10;;
4895;SDS011;2463;49.948;8.472;2024-03-02T11:23:31;85.23;;;5.00;;
4895;SDS011;2463;49.948;8.472;2024-03-02T11:28:49;87.80;;;5.10;;
4895;SDS011;2463;49.948;8.472;2024-03-02T11:31:16;90.50;;;7.30;;
4895;SDS011;2463;49.948;8.472;2024-03-02T11:33:42;85.83;;;5.30;;
4895;SDS011;2463;49.948;8.472;2024-03-02T11:36:09;85.87;;;4.90;;
4895;SDS011;2463;49.948;8.472;2024-03-02T11:38:38;86.57;;;5.10;;
4895;SDS011;2463;49.948;8.472;2024-03-02T11:41:06;86.07;;;4.80;;
4895;SDS011;2463;49.948;8.472;2024-03-02T11:43:38;84.90;;;4.50;;
4895;SDS011;2463;49.948;8.472;2024-03-02T11:46:06;85.30;;;4.33;;
4895;SDS011;2463;49.948;8.472;2024-03-02T11:48:38;85.40;;;4.93;;
4895;SDS011;2463;49.948;8.472;2024-03-02T11:51:05;87.72;;;4.97;;
4895;SDS011;2463;49.948;8.472;2024-03-02T11:53:32;86.18;;;4.57;;
4895;SDS011;2463;49.948;8.472;2024-03-02T11:56:01;86.85;;;4.50;;
4895;SDS011;2463;49.948;8.472;2024-03-02T11:58:28;88.65;;;5.18;;
4895;SDS011;2463;49.948;8.472;2024-03-02T12:00:56;87.90;;;4.83;;
4895;SDS011;2463;49.948;8.472;2024-03-02T12:03:23;85.90;;;4.57;;
4895;SDS011;2463;49.948;8.472;2024-03-02T12:05:55;88.90;;;5.27;;
4895;SDS011;2463;49.948;8.472;2024-03-02T12:08:22;84.88;;;3.88;;
4895;SDS011;2463;49.948;8.472;2024-03-02T12:10:56;85.60;;;4.70;;
4895;SDS011;2463;49.948;8.472;2024-03-02T12:13:28;85.50;;;4.90;;
4895;SDS011;2463;49.948;8.472;2024-03-02T12:15:55;85.17;;;4.47;;
4895;SDS011;2463;49.948;8.472;2024-03-02T12:18:22;84.97;;;4.17;;
4895;SDS011;2463;49.948;8.472;2024-03-02T12:20:50;83.50;;;3.87;;
4895;SDS011;2463;49.948;8.472;2024-03-02T12:23:23;83.80;;;4.10;;
4895;SDS011;2463;49.948;8.472;2024-03-02T12:25:50;82.00;;;3.20;;
4895;SDS011;2463;49.948;8.472;2024-03-02T12:28:17;80.47;;;3.57;;
4895;SDS011;2463;49.948;8.472;2024-03-02T12:30:45;80.80;;;3.37;;
4895;SDS011;2463;49.948;8.472;2024-03-02T12:33:13;78.87;;;3.20;;
4895;SDS011;2463;49.948;8.472;2024-03-02T12:35:40;81.47;;;3.00;;
4895;SDS011;2463;49.948;8.472;2024-03-02T12:38:07;80.83;;;3.17;;
4895;SDS011;2463;49.948;8.472;2024-03-02T12:40:34;77.57;;;3.00;;
4895;SDS011;2463;49.948;8.472;2024-03-02T12:43:04;79.10;;;3.03;;
4895;SDS011;2463;49.948;8.472;2024-03-02T12:45:32;78.90;;;2.90;;
4895;SDS011;2463;49.948;8.472;2024-03-02T12:47:59;79.07;;;3.00;;
4895;SDS011;2463;49.948;8.472;2024-03-02T12:50:26;79.97;;;3.37;;
4895;SDS011;2463;49.948;8.472;2024-03-02T12:52:53;83.47;;;3.17;;
4895;SDS011;2463;49.948;8.472;2024-03-02T12:55:21;79.17;;;3.10;;
4895;SDS011;2463;49.948;8.472;2024-03-02T12:57:49;81.17;;;3.50;;
4895;SDS011;2463;49.948;8.472;2024-03-02T13:00:18;81.33;;;3.60;;
4895;SDS011;2463;49.948;8.472;2024-03-02T13:02:45;81.80;;;3.40;;
4895;SDS011;2463;49.948;8.472;2024-03-02T13:05:13;82.60;;;3.77;;
4895;SDS011;2463;49.948;8.472;2024-03-02T13:07:39;83.93;;;4.10;;
4895;SDS011;2463;49.948;8.472;2024-03-02T13:10:07;84.83;;;4.23;;
4895;SDS011;2463;49.948;8.472;2024-03-02T13:12:35;82.97;;;3.90;;
4895;SDS011;2463;49.948;8.472;2024-03-02T13:15:03;84.20;;;4.13;;
4895;SDS011;2463;49.948;8.472;2024-03-02T13:17:33;82.87;;;3.73;;
4895;SDS011;2463;49.948;8.472;2024-03-02T13:20:04;83.27;;;3.77;;
4895;SDS011;2463;49.948;8.472;2024-03-02T13:22:34;83.57;;;4.00;;
4895;SDS011;2463;49.948;8.472;2024-03-02T13:25:01;83.30;;;4.00;;
4895;SDS011;2463;49.948;8.472;2024-03-02T13:27:30;86.67;;;3.97;;
4895;SDS011;2463;49.948;8.472;2024-03-02T13:30:01;84.80;;;4.20;;
4895;SDS011;2463;49.948;8.472;2024-03-02T13:32:29;85.07;;;4.33;;
4895;SDS011;2463;49.948;8.472;2024-03-02T13:34:56;90.50;;;4.50;;
4895;SDS011;2463;49.948;8.472;2024-03-02T13:37:22;83.47;;;3.87;;
4895;SDS011;2463;49.948;8.472;2024-03-02T13:39:49;84.90;;;4.43;;
4895;SDS011;2463;49.948;8.472;2024-03-02T13:42:16;83.27;;;3.50;;
4895;SDS011;2463;49.948;8.472;2024-03-02T13:44:43;81.80;;;3.33;;
4895;SDS011;2463;49.948;8.472;2024-03-02T13:47:13;82.07;;;3.63;;
4895;SDS011;2463;49.948;8.472;2024-03-02T13:49:40;82.20;;;3.50;;
4895;SDS011;2463;49.948;8.472;2024-03-02T13:52:10;80.67;;;3.20;;
4895;SDS011;2463;49.948;8.472;2024-03-02T13:54:39;81.90;;;3.50;;
4895;SDS011;2463;49.948;8.472;2024-03-02T13:57:08;81.27;;;3.40;;
4895;SDS011;2463;49.948;8.472;2024-03-02T13:59:35;80.30;;;3.10;;
4895;SDS011;2463;49.948;8.472;2024-03-02T14:02:02;80.67;;;3.33;;
4895;SDS011;2463;49.948;8.472;2024-03-02T14:04:31;82.20;;;4.73;;
4895;SDS011;2463;49.948;8.472;2024-03-02T14:06:59;82.20;;;3.80;;
4895;SDS011;2463;49.948;8.472;2024-03-02T14:09:27;83.00;;;3.70;;
4895;SDS011;2463;49.948;8.472;2024-03-02T14:11:54;83.90;;;4.00;;
4895;SDS011;2463;49.948;8.472;2024-03-02T14:14:21;83.97;;;3.80;;
4895;SDS011;2463;49.948;8.472;2024-03-02T14:16:49;84.13;;;3.80;;
4895;SDS011;2463;49.948;8.472;2024-03-02T14:19:16;84.17;;;4.07;;
4895;SDS011;2463;49.948;8.472;2024-03-02T14:21:42;84.77;;;4.23;;
4895;SDS011;2463;49.948;8.472;2024-03-02T14:24:09;87.67;;;3.90;;
4895;SDS011;2463;49.948;8.472;2024-03-02T14:26:36;84.30;;;3.90;;
4895;SDS011;2463;49.948;8.472;2024-03-02T14:29:03;85.37;;;3.93;;
4895;SDS011;2463;49.948;8.472;2024-03-02T14:31:30;85.57;;;3.80;;
4895;SDS011;2463;49.948;8.472;2024-03-02T14:33:58;83.20;;;3.70;;
4895;SDS011;2463;49.948;8.472;2024-03-02T14:36:25;83.10;;;3.40;;
4895;SDS011;2463;49.948;8.472;2024-03-02T14:38:53;82.50;;;3.53;;
4895;SDS011;2463;49.948;8.472;2024-03-02T14:41:21;83.17;;;3.60;;
4895;SDS011;2463;49.948;8.472;2024-03-02T14:43:48;81.00;;;3.30;;
4895;SDS011;2463;49.948;8.472;2024-03-02T14:46:15;80.87;;;3.20;;
4895;SDS011;2463;49.948;8.472;2024-03-02T14:48:43;82.50;;;3.30;;
4895;SDS011;2463;49.948;8.472;2024-03-02T14:51:11;81.80;;;3.40;;
4895;SDS011;2463;49.948;8.472;2024-03-02T14:53:38;81.90;;;3.43;;
4895;SDS011;2463;49.948;8.472;2024-03-02T14:56:05;82.37;;;3.50;;
4895;SDS011;2463;49.948;8.472;2024-03-02T14:58:31;82.57;;;3.70;;
4895;SDS011;2463;49.948;8.472;2024-03-02T15:00:58;83.20;;;3.40;;
4895;SDS011;2463;49.948;8.472;2024-03-02T15:03:25;83.77;;;3.90;;
4895;SDS011;2463;49.948;8.472;2024-03-02T15:05:52;86.73;;;3.80;;
4895;SDS011;2463;49.948;8.472;2024-03-02T15:08:19;84.17;;;3.63;;
4895;SDS011;2463;49.948;8.472;2024-03-02T15:10:46;84.57;;;3.93;;
4895;SDS011;2463;49.948;8.472;2024-03-02T15:13:13;82.37;;;3.80;;
4895;SDS011;2463;49.948;8.472;2024-03-02T15:15:40;82.30;;;3.50;;